createdAt,value
2017-11-01T00:00:19.472Z,10.35
2017-11-01T00:00:53.473Z,10.43
2017-11-01T00:01:27.331Z,10.93
2017-11-01T00:02:01.218Z,11.60
2017-11-01T00:02:35.141Z,9.90
2017-11-01T00:03:09.047Z,10.40
2017-11-01T00:03:42.906Z,10.63
2017-11-01T00:04:16.787Z,10.20
2017-11-01T00:04:50.661Z,11.10
2017-11-01T00:05:24.522Z,11.60
2017-11-01T00:05:58.424Z,10.80
2017-11-01T00:06:32.290Z,10.30
2017-11-01T00:07:06.177Z,11.20
2017-11-01T00:07:40.115Z,10.88
2017-11-01T00:08:14.023Z,10.75
2017-11-01T00:08:47.897Z,10.05
2017-11-01T00:09:21.795Z,11.35
2017-11-01T00:09:55.664Z,10.27
2017-11-01T00:10:29.527Z,10.73
2017-11-01T00:11:03.594Z,11.75
2017-11-01T00:11:37.447Z,11.57
2017-11-01T00:12:11.690Z,10.52
2017-11-01T00:12:45.684Z,12.05
2017-11-01T00:13:19.690Z,11.50
2017-11-01T00:13:53.559Z,11.02
2017-11-01T00:14:27.674Z,11.32
2017-11-01T00:15:01.571Z,12.07
2017-11-01T00:15:35.440Z,10.88
2017-11-01T00:16:09.307Z,10.88
2017-11-01T00:16:43.163Z,10.95
2017-11-01T00:17:17.027Z,11.23
2017-11-01T00:17:50.916Z,10.45
2017-11-01T00:18:24.946Z,10.80
2017-11-01T00:18:58.810Z,10.93
2017-11-01T00:19:32.823Z,11.32
2017-11-01T00:20:06.686Z,10.38
2017-11-01T00:20:40.567Z,12.10
2017-11-01T00:21:14.726Z,11.15
2017-11-01T00:21:48.726Z,11.77
2017-11-01T00:22:22.608Z,11.95
2017-11-01T00:22:56.727Z,11.50
2017-11-01T00:23:30.601Z,10.75
2017-11-01T00:24:04.747Z,11.90
2017-11-01T00:24:39.881Z,10.68
2017-11-01T00:25:14.559Z,11.20
2017-11-01T00:25:48.587Z,11.38
2017-11-01T00:26:22.477Z,11.85
2017-11-01T00:26:56.645Z,11.73
2017-11-01T00:27:30.918Z,10.70
2017-11-01T00:28:05.166Z,10.90
2017-11-01T00:28:39.256Z,10.38
2017-11-01T00:29:13.138Z,12.10
2017-11-01T00:29:47.016Z,11.43
2017-11-01T00:30:21.069Z,11.00
2017-11-01T00:30:54.964Z,11.10
2017-11-01T00:31:28.895Z,11.45
2017-11-01T00:32:02.836Z,10.95
2017-11-01T00:32:36.734Z,10.75
2017-11-01T00:33:10.614Z,11.30
2017-11-01T00:33:45.002Z,10.65
2017-11-01T00:34:18.928Z,11.50
2017-11-01T00:34:52.857Z,11.05
2017-11-01T00:35:26.920Z,11.63
2017-11-01T00:36:00.839Z,10.57
2017-11-01T00:36:34.934Z,10.88
2017-11-01T00:37:08.824Z,11.90
2017-11-01T00:37:42.706Z,10.85
2017-11-01T00:38:16.700Z,11.73
2017-11-01T00:38:50.558Z,12.25
2017-11-01T00:39:24.431Z,11.00
2017-11-01T00:39:58.315Z,10.82
2017-11-01T00:40:32.202Z,12.37
2017-11-01T00:41:06.078Z,12.43
2017-11-01T00:41:40.109Z,12.10
2017-11-01T00:42:13.986Z,11.32
2017-11-01T00:42:48.197Z,12.13
2017-11-01T00:43:22.071Z,11.65
2017-11-01T00:43:55.947Z,11.15
2017-11-01T00:44:29.822Z,13.35
2017-11-01T00:45:03.782Z,11.45
2017-11-01T00:45:37.641Z,12.45
2017-11-01T00:46:11.496Z,12.00
2017-11-01T00:46:45.364Z,12.48
2017-11-01T00:47:19.231Z,12.10
2017-11-01T00:47:53.234Z,12.75
2017-11-01T00:48:27.102Z,12.07
2017-11-01T00:49:00.974Z,12.10
2017-11-01T00:49:35.025Z,12.65
2017-11-01T00:50:09.018Z,11.60
2017-11-01T00:50:42.883Z,13.82
2017-11-01T00:51:16.747Z,12.00
2017-11-01T00:51:50.810Z,12.13
2017-11-01T00:52:24.693Z,12.10
2017-11-01T00:52:58.695Z,10.93
2017-11-01T00:53:32.694Z,13.38
2017-11-01T00:54:06.591Z,12.65
2017-11-01T00:54:40.469Z,12.80
2017-11-01T00:55:14.342Z,12.85
2017-11-01T00:55:48.220Z,13.27
2017-11-01T00:56:22.087Z,12.00
2017-11-01T00:56:56.282Z,12.80
2017-11-01T00:57:30.271Z,13.13
2017-11-01T00:58:05.085Z,14.32
2017-11-01T00:58:39.359Z,13.13
2017-11-01T00:59:13.288Z,13.82
2017-11-01T00:59:47.384Z,13.43
2017-11-01T01:00:21.285Z,13.13
2017-11-01T01:00:55.218Z,13.40
2017-11-01T01:01:29.685Z,13.93
2017-11-01T01:02:03.863Z,13.48
2017-11-01T01:02:37.889Z,13.73
2017-11-01T01:03:12.085Z,13.15
2017-11-01T01:03:45.937Z,14.13
2017-11-01T01:04:19.802Z,13.70
2017-11-01T01:04:53.663Z,14.13
2017-11-01T01:05:27.541Z,13.90
2017-11-01T01:06:01.475Z,14.35
2017-11-01T01:06:35.462Z,15.95
2017-11-01T01:07:09.581Z,14.45
2017-11-01T01:07:43.442Z,13.07
2017-11-01T01:08:17.301Z,13.70
2017-11-01T01:08:51.243Z,14.30
2017-11-01T01:09:25.145Z,14.35
2017-11-01T01:09:59.012Z,14.95
2017-11-01T01:10:32.930Z,13.88
2017-11-01T01:11:06.796Z,15.40
2017-11-01T01:11:40.668Z,14.40
2017-11-01T01:12:15.374Z,15.23
2017-11-01T01:12:49.463Z,15.50
2017-11-01T01:13:23.328Z,14.63
2017-11-01T01:13:57.418Z,15.80
2017-11-01T01:14:31.426Z,14.38
2017-11-01T01:15:05.298Z,15.57
2017-11-01T01:15:39.183Z,15.57
2017-11-01T01:16:13.052Z,15.73
2017-11-01T01:16:46.906Z,14.82
2017-11-01T01:17:20.763Z,15.45
2017-11-01T01:17:54.630Z,15.90
2017-11-01T01:18:28.500Z,14.95
2017-11-01T01:19:02.496Z,15.07
2017-11-01T01:19:36.374Z,15.40
2017-11-01T01:20:10.243Z,15.27
2017-11-01T01:20:44.150Z,15.27
2017-11-01T01:21:18.023Z,15.40
2017-11-01T01:21:51.887Z,15.77
2017-11-01T01:22:25.750Z,16.12
2017-11-01T01:22:59.628Z,16.55
2017-11-01T01:23:33.483Z,16.10
2017-11-01T01:24:07.374Z,17.98
2017-11-01T01:24:41.245Z,16.83
2017-11-01T01:25:15.170Z,16.42
2017-11-01T01:25:49.053Z,16.70
2017-11-01T01:26:23.026Z,16.65
2017-11-01T01:26:56.888Z,18.33
2017-11-01T01:27:30.828Z,17.70
2017-11-01T01:28:04.823Z,17.55
2017-11-01T01:28:38.734Z,17.60
2017-11-01T01:29:12.707Z,18.23
2017-11-01T01:29:46.612Z,17.45
2017-11-01T01:30:20.523Z,17.15
2017-11-01T01:30:54.706Z,16.77
2017-11-01T01:31:28.575Z,18.67
2017-11-01T01:32:02.491Z,17.48
2017-11-01T01:32:36.348Z,17.50
2017-11-01T01:33:10.205Z,18.58
2017-11-01T01:33:44.179Z,18.62
2017-11-01T01:34:18.046Z,18.55
2017-11-01T01:34:51.964Z,18.17
2017-11-01T01:35:25.850Z,17.90
2017-11-01T01:36:03.361Z,18.83
2017-11-01T01:36:37.214Z,18.80
2017-11-01T01:37:11.146Z,17.92
2017-11-01T01:37:45.004Z,18.77
2017-11-01T01:38:18.871Z,19.35
2017-11-01T01:38:52.819Z,18.45
2017-11-01T01:39:26.687Z,18.30
2017-11-01T01:40:00.550Z,18.35
2017-11-01T01:40:34.930Z,19.48
2017-11-01T01:41:08.810Z,19.40
2017-11-01T01:41:42.671Z,18.60
2017-11-01T01:42:16.543Z,20.37
2017-11-01T01:42:50.519Z,21.17
2017-11-01T01:43:24.383Z,20.02
2017-11-01T01:43:58.906Z,20.00
2017-11-01T01:44:32.894Z,19.10
2017-11-01T01:45:07.721Z,20.20
2017-11-01T01:45:41.843Z,20.02
2017-11-01T01:46:15.707Z,21.27
2017-11-01T01:46:49.703Z,20.33
2017-11-01T01:47:23.559Z,19.65
2017-11-01T01:47:57.516Z,21.45
2017-11-01T01:48:31.401Z,20.27
2017-11-01T01:49:05.290Z,20.50
2017-11-01T01:49:39.183Z,19.95
2017-11-01T01:50:13.078Z,19.90
2017-11-01T01:50:46.966Z,19.50
2017-11-01T01:51:21.165Z,19.83
2017-11-01T01:51:55.028Z,19.70
2017-11-01T01:52:29.066Z,21.23
2017-11-01T01:53:02.925Z,21.48
2017-11-01T01:53:37.062Z,18.73
2017-11-01T01:54:10.954Z,20.45
2017-11-01T01:54:45.003Z,19.70
2017-11-01T01:55:18.930Z,21.15
2017-11-01T01:55:52.820Z,20.45
2017-11-01T01:56:26.702Z,20.75
2017-11-01T01:57:00.643Z,20.45
2017-11-01T01:57:34.514Z,19.80
2017-11-01T01:58:08.409Z,21.95
2017-11-01T01:58:42.291Z,20.92
2017-11-01T01:59:16.171Z,19.70
2017-11-01T01:59:50.026Z,21.58
2017-11-01T02:00:23.891Z,21.15
2017-11-01T02:00:57.766Z,20.27
2017-11-01T02:01:31.901Z,20.85
2017-11-01T02:02:05.749Z,20.70
2017-11-01T02:02:39.611Z,22.08
2017-11-01T02:03:13.479Z,21.40
2017-11-01T02:03:47.341Z,20.92
2017-11-01T02:04:21.202Z,23.15
2017-11-01T02:04:55.065Z,21.08
2017-11-01T02:05:28.974Z,20.65
2017-11-01T02:06:02.831Z,20.95
2017-11-01T02:06:36.702Z,20.80
2017-11-01T02:07:10.572Z,19.98
2017-11-01T02:07:44.553Z,21.87
2017-11-01T02:08:18.407Z,20.75
2017-11-01T02:08:52.667Z,21.73
2017-11-01T02:09:26.527Z,19.80
2017-11-01T02:10:00.435Z,20.88
2017-11-01T02:10:34.449Z,21.15
2017-11-01T02:11:08.337Z,20.77
2017-11-01T02:11:42.223Z,21.00
2017-11-01T02:12:16.087Z,21.42
2017-11-01T02:12:50.134Z,19.62
2017-11-01T02:13:24.026Z,19.80
2017-11-01T02:13:57.886Z,20.23
2017-11-01T02:14:31.749Z,20.40
2017-11-01T02:15:05.800Z,20.60
2017-11-01T02:15:39.791Z,19.80
2017-11-01T02:16:13.672Z,19.50
2017-11-01T02:16:47.590Z,21.25
2017-11-01T02:17:21.682Z,20.65
2017-11-01T02:17:55.540Z,20.15
2017-11-01T02:18:29.480Z,21.40
2017-11-01T02:19:03.333Z,20.55
2017-11-01T02:19:37.202Z,21.20
2017-11-01T02:20:11.062Z,19.90
2017-11-01T02:20:44.922Z,19.80
2017-11-01T02:21:18.772Z,20.77
2017-11-01T02:21:52.646Z,19.70
2017-11-01T02:22:26.507Z,18.62
2017-11-01T02:23:00.373Z,20.20
2017-11-01T02:23:34.234Z,20.95
2017-11-01T02:24:08.214Z,21.70
2017-11-01T02:24:42.071Z,21.50
2017-11-01T02:25:16.017Z,20.73
2017-11-01T02:25:49.886Z,21.67
2017-11-01T02:26:23.741Z,21.08
2017-11-01T02:26:57.626Z,19.95
2017-11-01T02:27:31.497Z,21.05
2017-11-01T02:28:05.366Z,20.88
2017-11-01T02:28:39.251Z,20.80
2017-11-01T02:29:13.692Z,20.98
2017-11-01T02:29:47.892Z,20.75
2017-11-01T02:30:22.650Z,21.48
2017-11-01T02:30:56.606Z,22.20
2017-11-01T02:31:31.020Z,21.12
2017-11-01T02:32:06.691Z,22.27
2017-11-01T02:32:41.468Z,21.60
2017-11-01T02:33:16.392Z,22.73
2017-11-01T02:33:50.487Z,22.67
2017-11-01T02:34:24.896Z,21.02
2017-11-01T02:34:59.304Z,20.17
2017-11-01T02:35:33.186Z,20.20
2017-11-01T02:36:07.041Z,21.33
2017-11-01T02:36:40.893Z,23.80
2017-11-01T02:37:14.779Z,22.85
2017-11-01T02:37:48.686Z,22.42
2017-11-01T02:38:22.675Z,22.00
2017-11-01T02:38:56.677Z,22.15
2017-11-01T02:39:30.545Z,21.87
2017-11-01T02:40:04.420Z,22.50
2017-11-01T02:40:38.285Z,22.92
2017-11-01T02:41:12.147Z,20.17
2017-11-01T02:41:46.046Z,22.40
2017-11-01T02:42:19.915Z,21.02
2017-11-01T02:42:53.780Z,23.70
2017-11-01T02:43:27.732Z,22.55
2017-11-01T02:44:01.595Z,23.50
2017-11-01T02:44:35.449Z,23.08
2017-11-01T02:45:09.305Z,22.25
2017-11-01T02:45:43.175Z,24.33
2017-11-01T02:46:17.046Z,20.80
2017-11-01T02:46:50.916Z,22.83
2017-11-01T02:47:24.794Z,21.60
2017-11-01T02:47:58.665Z,22.65
2017-11-01T02:48:32.534Z,23.55
2017-11-01T02:49:06.402Z,23.10
2017-11-01T02:49:40.375Z,22.60
2017-11-01T02:50:14.237Z,22.35
2017-11-01T02:50:48.106Z,22.70
2017-11-01T02:51:21.975Z,23.05
2017-11-01T02:51:55.833Z,24.33
2017-11-01T02:52:29.723Z,24.50
2017-11-01T02:53:03.606Z,25.88
2017-11-01T02:53:37.464Z,24.67
2017-11-01T02:54:11.331Z,22.48
2017-11-01T02:54:45.233Z,23.15
2017-11-01T02:55:19.094Z,22.17
2017-11-01T02:55:52.946Z,23.23
2017-11-01T02:56:26.814Z,23.80
2017-11-01T02:57:00.810Z,23.12
2017-11-01T02:57:34.670Z,22.65
2017-11-01T02:58:08.804Z,23.25
2017-11-01T02:58:42.665Z,22.25
2017-11-01T02:59:16.522Z,22.70
2017-11-01T02:59:50.798Z,22.42
2017-11-01T03:00:24.918Z,23.60
2017-11-01T03:00:58.798Z,23.33
2017-11-01T03:01:32.666Z,22.33
2017-11-01T03:02:06.525Z,23.10
2017-11-01T03:02:40.422Z,24.37
2017-11-01T03:03:14.275Z,23.87
2017-11-01T03:03:48.126Z,23.87
2017-11-01T03:04:21.981Z,22.20
2017-11-01T03:04:55.861Z,22.37
2017-11-01T03:05:29.731Z,23.12
2017-11-01T03:06:03.597Z,24.58
2017-11-01T03:06:37.539Z,23.92
2017-11-01T03:07:11.398Z,21.70
2017-11-01T03:07:45.275Z,22.33
2017-11-01T03:08:19.146Z,23.15
2017-11-01T03:08:53.008Z,24.05
2017-11-01T03:09:26.862Z,22.80
2017-11-01T03:10:01.218Z,23.58
2017-11-01T03:10:35.116Z,23.83
2017-11-01T03:11:09.014Z,23.95
2017-11-01T03:11:42.882Z,22.70
2017-11-01T03:12:16.739Z,21.95
2017-11-01T03:12:50.633Z,23.27
2017-11-01T03:13:24.503Z,21.52
2017-11-01T03:13:58.367Z,23.12
2017-11-01T03:14:32.231Z,23.45
2017-11-01T03:15:06.285Z,23.90
2017-11-01T03:15:40.152Z,22.95
2017-11-01T03:16:14.018Z,23.50
2017-11-01T03:16:47.878Z,23.30
2017-11-01T03:17:21.741Z,23.52
2017-11-01T03:17:55.595Z,23.65
2017-11-01T03:18:29.465Z,23.60
2017-11-01T03:19:03.330Z,24.00
2017-11-01T03:19:37.339Z,24.90
2017-11-01T03:20:11.208Z,23.35
2017-11-01T03:20:45.232Z,20.73
2017-11-01T03:21:19.100Z,23.20
2017-11-01T03:21:52.953Z,21.15
2017-11-01T03:22:26.918Z,22.62
2017-11-01T03:23:00.799Z,22.20
2017-11-01T03:23:34.670Z,23.42
2017-11-01T03:24:08.537Z,24.12
2017-11-01T03:24:42.392Z,22.80
2017-11-01T03:25:16.390Z,23.62
2017-11-01T03:25:50.242Z,22.08
2017-11-01T03:26:24.103Z,22.95
2017-11-01T03:26:57.962Z,23.75
2017-11-01T03:27:31.813Z,24.23
2017-11-01T03:28:05.677Z,24.90
2017-11-01T03:28:39.551Z,22.42
2017-11-01T03:29:13.683Z,23.95
2017-11-01T03:29:47.566Z,23.77
2017-11-01T03:30:21.426Z,22.48
2017-11-01T03:30:55.292Z,21.75
2017-11-01T03:31:29.159Z,22.87
2017-11-01T03:32:03.022Z,23.98
2017-11-01T03:32:36.889Z,23.30
2017-11-01T03:33:10.780Z,22.17
2017-11-01T03:33:44.819Z,23.08
2017-11-01T03:34:18.682Z,22.98
2017-11-01T03:34:52.813Z,23.98
2017-11-01T03:35:26.671Z,23.35
2017-11-01T03:36:00.529Z,22.30
2017-11-01T03:36:34.393Z,23.52
2017-11-01T03:37:08.294Z,24.02
2017-11-01T03:37:42.164Z,24.12
2017-11-01T03:38:16.807Z,22.48
2017-11-01T03:38:50.662Z,23.30
2017-11-01T03:39:25.387Z,23.25
2017-11-01T03:39:59.306Z,23.75
2017-11-01T03:40:33.164Z,21.42
2017-11-01T03:41:07.310Z,23.77
2017-11-01T03:41:41.189Z,21.55
2017-11-01T03:42:15.062Z,22.27
2017-11-01T03:42:48.917Z,21.12
2017-11-01T03:43:22.984Z,23.00
2017-11-01T03:43:56.841Z,22.42
2017-11-01T03:44:30.710Z,24.33
2017-11-01T03:45:04.785Z,23.00
2017-11-01T03:45:38.650Z,21.52
2017-11-01T03:46:12.668Z,23.10
2017-11-01T03:46:46.524Z,22.37
2017-11-01T03:47:20.715Z,22.45
2017-11-01T03:47:54.574Z,21.95
2017-11-01T03:48:28.466Z,21.52
2017-11-01T03:49:02.331Z,22.00
2017-11-01T03:49:36.197Z,20.23
2017-11-01T03:50:10.345Z,22.00
2017-11-01T03:50:44.444Z,21.87
2017-11-01T03:51:18.308Z,21.87
2017-11-01T03:51:52.183Z,21.87
2017-11-01T03:52:26.130Z,20.60
2017-11-01T03:53:00.039Z,20.77
2017-11-01T03:53:33.915Z,22.42
2017-11-01T03:54:07.927Z,21.95
2017-11-01T03:54:41.807Z,21.75
2017-11-01T03:55:15.674Z,22.40
2017-11-01T03:55:49.808Z,22.10
2017-11-01T03:56:23.670Z,20.48
2017-11-01T03:56:57.806Z,21.42
2017-11-01T03:57:31.670Z,22.42
2017-11-01T03:58:05.698Z,21.83
2017-11-01T03:58:39.590Z,21.65
2017-11-01T03:59:13.467Z,22.45
2017-11-01T03:59:47.328Z,21.55
2017-11-01T04:00:21.199Z,21.73
2017-11-01T04:00:55.060Z,22.20
2017-11-01T04:01:28.909Z,20.83
2017-11-01T04:02:02.774Z,21.35
2017-11-01T04:02:36.859Z,22.83
2017-11-01T04:03:10.713Z,20.25
2017-11-01T04:03:44.583Z,21.23
2017-11-01T04:04:18.444Z,21.80
2017-11-01T04:04:52.293Z,21.12
2017-11-01T04:05:26.222Z,22.20
2017-11-01T04:06:00.083Z,20.90
2017-11-01T04:06:33.948Z,21.05
2017-11-01T04:07:07.814Z,19.98
2017-11-01T04:07:41.673Z,21.12
2017-11-01T04:08:15.536Z,21.25
2017-11-01T04:08:49.425Z,20.60
2017-11-01T04:09:23.297Z,20.62
2017-11-01T04:09:57.153Z,18.77
2017-11-01T04:10:31.014Z,19.25
2017-11-01T04:11:05.391Z,19.12
2017-11-01T04:11:39.258Z,20.15
2017-11-01T04:12:13.181Z,20.15
2017-11-01T04:12:47.059Z,21.45
2017-11-01T04:13:20.925Z,18.45
2017-11-01T04:13:54.795Z,20.08
2017-11-01T04:14:28.651Z,19.40
2017-11-01T04:15:02.562Z,20.12
2017-11-01T04:15:36.431Z,19.35
2017-11-01T04:16:13.111Z,18.17
2017-11-01T04:16:46.981Z,19.12
2017-11-01T04:17:21.775Z,19.40
2017-11-01T04:18:03.238Z,17.85
2017-11-01T04:18:38.024Z,18.60
2017-11-01T04:19:17.741Z,17.20
2017-11-01T04:19:51.604Z,17.00
2017-11-01T04:20:26.496Z,19.58
2017-11-01T04:21:00.361Z,18.00
2017-11-01T04:21:34.218Z,18.75
2017-11-01T04:22:08.085Z,18.90
2017-11-01T04:22:41.946Z,17.75
2017-11-01T04:23:16.683Z,18.10
2017-11-01T04:23:50.551Z,17.17
2017-11-01T04:24:24.562Z,18.30
2017-11-01T04:24:58.558Z,17.92
2017-11-01T04:25:32.542Z,17.80
2017-11-01T04:26:06.402Z,16.92
2017-11-01T04:26:40.339Z,17.58
2017-11-01T04:27:14.231Z,17.30
2017-11-01T04:27:48.096Z,17.80
2017-11-01T04:28:21.983Z,18.60
2017-11-01T04:28:55.865Z,17.55
2017-11-01T04:29:29.755Z,16.73
2017-11-01T04:30:03.926Z,17.15
2017-11-01T04:30:38.014Z,17.02
2017-11-01T04:31:12.112Z,16.35
2017-11-01T04:31:46.141Z,16.95
2017-11-01T04:32:20.003Z,16.80
2017-11-01T04:32:53.848Z,16.60
2017-11-01T04:33:27.713Z,17.17
2017-11-01T04:34:01.683Z,16.15
2017-11-01T04:34:35.682Z,16.58
2017-11-01T04:35:09.535Z,17.25
2017-11-01T04:35:43.400Z,16.90
2017-11-01T04:36:17.365Z,15.63
2017-11-01T04:36:51.226Z,17.23
2017-11-01T04:37:25.085Z,17.65
2017-11-01T04:37:59.156Z,16.10
2017-11-01T04:38:33.459Z,17.70
2017-11-01T04:39:07.319Z,15.30
2017-11-01T04:39:41.207Z,16.08
2017-11-01T04:40:15.065Z,18.05
2017-11-01T04:40:48.927Z,16.00
2017-11-01T04:41:22.790Z,15.90
2017-11-01T04:41:56.642Z,17.15
2017-11-01T04:42:30.498Z,16.23
2017-11-01T04:43:04.374Z,17.12
2017-11-01T04:43:38.246Z,16.00
2017-11-01T04:44:12.741Z,14.23
2017-11-01T04:44:46.653Z,16.50
2017-11-01T04:45:20.507Z,16.12
2017-11-01T04:45:54.365Z,16.10
2017-11-01T04:46:28.402Z,16.50
2017-11-01T04:47:02.272Z,15.18
2017-11-01T04:47:36.138Z,14.77
2017-11-01T04:48:12.762Z,16.42
2017-11-01T04:48:46.612Z,16.40
2017-11-01T04:49:20.477Z,16.55
2017-11-01T04:49:54.545Z,15.70
2017-11-01T04:50:29.153Z,15.05
2017-11-01T04:51:09.538Z,14.27
2017-11-01T04:51:57.882Z,14.27
2017-11-01T04:52:35.517Z,15.25
2017-11-01T04:53:09.421Z,15.68
2017-11-01T04:53:43.281Z,15.05
2017-11-01T04:54:17.135Z,14.95
2017-11-01T04:54:51.002Z,16.10
2017-11-01T04:55:25.197Z,15.60
2017-11-01T04:55:59.050Z,15.85
2017-11-01T04:56:33.093Z,15.32
2017-11-01T04:57:06.982Z,15.65
2017-11-01T04:57:40.839Z,15.32
2017-11-01T04:58:14.713Z,15.77
2017-11-01T04:58:48.571Z,14.35
2017-11-01T04:59:23.261Z,15.02
2017-11-01T05:00:04.178Z,15.32
2017-11-01T05:00:42.932Z,15.60
2017-11-01T05:01:18.715Z,15.15
2017-11-01T05:01:54.534Z,14.00
2017-11-01T05:02:34.054Z,15.25
2017-11-01T05:03:11.767Z,14.73
2017-11-01T05:03:45.629Z,14.82
2017-11-01T05:04:19.521Z,13.35
2017-11-01T05:04:53.372Z,15.50
2017-11-01T05:05:27.982Z,15.00
2017-11-01T05:06:01.848Z,14.48
2017-11-01T05:06:47.327Z,15.05
2017-11-01T05:07:21.314Z,16.08
2017-11-01T05:07:55.170Z,15.63
2017-11-01T05:08:34.800Z,14.55
2017-11-01T05:09:12.826Z,15.63
2017-11-01T05:09:46.681Z,14.25
2017-11-01T05:10:23.276Z,14.70
2017-11-01T05:10:57.137Z,13.07
2017-11-01T05:11:36.754Z,14.43
2017-11-01T05:12:14.394Z,15.85
2017-11-01T05:12:53.194Z,14.45
2017-11-01T05:13:27.061Z,14.73
2017-11-01T05:14:02.821Z,14.07
2017-11-01T05:14:36.818Z,14.68
2017-11-01T05:15:13.687Z,14.27
2017-11-01T05:15:47.542Z,13.93
2017-11-01T05:16:21.475Z,13.75
2017-11-01T05:16:56.254Z,14.93
2017-11-01T05:17:30.120Z,15.10
2017-11-01T05:18:04.886Z,14.98
2017-11-01T05:18:38.995Z,14.93
2017-11-01T05:19:15.871Z,14.70
2017-11-01T05:19:49.738Z,14.10
2017-11-01T05:20:23.654Z,14.98
2017-11-01T05:20:57.520Z,14.73
2017-11-01T05:21:31.388Z,15.27
2017-11-01T05:22:05.450Z,13.20
2017-11-01T05:22:39.325Z,14.77
2017-11-01T05:23:15.194Z,15.35
2017-11-01T05:23:49.177Z,15.30
2017-11-01T05:24:23.042Z,13.73
2017-11-01T05:24:58.819Z,14.38
2017-11-01T05:25:48.519Z,15.65
2017-11-01T05:26:22.388Z,13.15
2017-11-01T05:26:56.255Z,14.05
2017-11-01T05:27:30.168Z,14.93
2017-11-01T05:28:04.269Z,14.25
2017-11-01T05:28:38.259Z,14.75
2017-11-01T05:29:12.118Z,13.77
2017-11-01T05:29:45.966Z,14.60
2017-11-01T05:30:19.846Z,15.40
2017-11-01T05:30:53.842Z,14.00
2017-11-01T05:31:27.961Z,13.25
2017-11-01T05:32:02.764Z,14.00
2017-11-01T05:32:36.765Z,13.93
2017-11-01T05:33:10.647Z,14.27
2017-11-01T05:33:44.518Z,13.60
2017-11-01T05:34:18.400Z,13.62
2017-11-01T05:34:52.265Z,13.25
2017-11-01T05:35:26.132Z,14.30
2017-11-01T05:36:00.024Z,13.52
2017-11-01T05:36:33.935Z,14.23
2017-11-01T05:37:07.804Z,13.52
2017-11-01T05:37:41.821Z,15.10
2017-11-01T05:38:15.930Z,13.85
2017-11-01T05:38:49.791Z,14.32
2017-11-01T05:39:23.655Z,14.23
2017-11-01T05:39:57.508Z,13.70
2017-11-01T05:40:31.373Z,13.40
2017-11-01T05:41:05.697Z,14.55
2017-11-01T05:41:39.603Z,13.70
2017-11-01T05:42:13.476Z,14.40
2017-11-01T05:42:47.692Z,13.73
2017-11-01T05:43:21.608Z,13.00
2017-11-01T05:43:55.466Z,14.73
2017-11-01T05:44:29.375Z,13.52
2017-11-01T05:45:03.275Z,14.77
2017-11-01T05:45:37.250Z,14.10
2017-11-01T05:46:11.118Z,13.57
2017-11-01T05:46:45.270Z,13.88
2017-11-01T05:47:19.179Z,13.85
2017-11-01T05:47:53.091Z,15.20
2017-11-01T05:48:26.955Z,14.02
2017-11-01T05:49:00.831Z,14.23
2017-11-01T05:49:34.739Z,13.50
2017-11-01T05:50:11.475Z,13.82
2017-11-01T05:50:45.340Z,14.43
2017-11-01T05:51:19.193Z,13.93
2017-11-01T05:51:53.061Z,14.68
2017-11-01T05:52:26.929Z,14.10
2017-11-01T05:53:00.801Z,13.90
2017-11-01T05:53:34.660Z,14.45
2017-11-01T05:54:08.577Z,13.15
2017-11-01T05:54:42.443Z,14.00
2017-11-01T05:55:16.287Z,13.38
2017-11-01T05:55:50.146Z,14.38
2017-11-01T05:56:24.168Z,14.35
2017-11-01T05:56:58.040Z,13.15
2017-11-01T05:57:31.907Z,13.57
2017-11-01T05:58:08.605Z,13.15
2017-11-01T05:58:42.492Z,13.10
2017-11-01T05:59:16.367Z,13.02
2017-11-01T05:59:50.389Z,13.07
2017-11-01T06:00:24.288Z,12.80
2017-11-01T06:00:58.137Z,14.18
2017-11-01T06:01:32.054Z,14.00
2017-11-01T06:02:05.909Z,13.50
2017-11-01T06:02:39.760Z,12.85
2017-11-01T06:03:13.688Z,13.20
2017-11-01T06:03:47.560Z,13.05
2017-11-01T06:04:21.426Z,13.55
2017-11-01T06:04:55.299Z,12.70
2017-11-01T06:05:29.163Z,13.15
2017-11-01T06:06:03.028Z,13.77
2017-11-01T06:06:36.881Z,12.98
2017-11-01T06:07:10.745Z,12.98
2017-11-01T06:07:44.615Z,13.48
2017-11-01T06:08:18.918Z,12.35
2017-11-01T06:08:52.805Z,13.75
2017-11-01T06:09:26.702Z,13.70
2017-11-01T06:10:00.788Z,12.95
2017-11-01T06:10:34.646Z,12.20
2017-11-01T06:11:08.515Z,13.52
2017-11-01T06:11:42.390Z,13.45
2017-11-01T06:12:16.265Z,12.77
2017-11-01T06:12:50.135Z,14.50
2017-11-01T06:13:24.049Z,12.85
2017-11-01T06:13:57.909Z,12.68
2017-11-01T06:14:31.867Z,14.55
2017-11-01T06:15:05.739Z,12.93
2017-11-01T06:15:39.764Z,14.60
2017-11-01T06:16:13.641Z,14.87
2017-11-01T06:16:47.499Z,13.93
2017-11-01T06:17:21.369Z,13.88
2017-11-01T06:17:55.444Z,14.40
2017-11-01T06:18:29.781Z,13.45
2017-11-01T06:19:03.642Z,13.60
2017-11-01T06:19:37.512Z,12.23
2017-11-01T06:20:11.398Z,12.40
2017-11-01T06:20:45.265Z,13.20
2017-11-01T06:21:19.120Z,12.93
2017-11-01T06:21:53.006Z,13.75
2017-11-01T06:22:26.877Z,12.70
2017-11-01T06:23:00.747Z,13.20
2017-11-01T06:23:34.642Z,13.95
2017-11-01T06:24:08.503Z,13.60
2017-11-01T06:24:42.494Z,13.30
2017-11-01T06:25:16.349Z,12.68
2017-11-01T06:25:50.217Z,13.20
2017-11-01T06:26:24.178Z,13.68
2017-11-01T06:26:58.047Z,13.90
2017-11-01T06:27:31.908Z,12.37
2017-11-01T06:28:05.774Z,13.50
2017-11-01T06:28:39.634Z,13.52
2017-11-01T06:29:13.498Z,12.85
2017-11-01T06:29:47.379Z,12.80
2017-11-01T06:30:21.239Z,13.05
2017-11-01T06:30:55.102Z,13.85
2017-11-01T06:31:28.968Z,12.93
2017-11-01T06:32:02.826Z,13.68
2017-11-01T06:32:36.821Z,12.02
2017-11-01T06:33:10.688Z,14.23
2017-11-01T06:33:44.566Z,12.90
2017-11-01T06:34:18.512Z,13.77
2017-11-01T06:34:52.373Z,12.98
2017-11-01T06:35:26.242Z,13.57
2017-11-01T06:36:00.111Z,14.00
2017-11-01T06:36:33.966Z,11.73
2017-11-01T06:37:07.860Z,13.27
2017-11-01T06:37:43.702Z,13.07
2017-11-01T06:38:17.631Z,12.73
2017-11-01T06:38:51.616Z,13.32
2017-11-01T06:39:25.483Z,12.55
2017-11-01T06:39:59.521Z,12.98
2017-11-01T06:40:33.404Z,11.63
2017-11-01T06:41:07.290Z,14.85
2017-11-01T06:41:41.157Z,12.52
2017-11-01T06:42:15.151Z,13.75
2017-11-01T06:42:49.060Z,13.75
2017-11-01T06:43:22.972Z,13.62
2017-11-01T06:43:57.724Z,13.00
2017-11-01T06:44:31.602Z,12.93
2017-11-01T06:45:05.477Z,13.80
2017-11-01T06:45:39.349Z,12.65
2017-11-01T06:46:13.220Z,13.52
2017-11-01T06:46:47.156Z,14.30
2017-11-01T06:47:21.139Z,13.70
2017-11-01T06:47:54.998Z,13.93
2017-11-01T06:48:28.855Z,13.10
2017-11-01T06:49:02.735Z,14.02
2017-11-01T06:49:36.634Z,13.73
2017-11-01T06:50:10.524Z,13.57
2017-11-01T06:50:44.644Z,12.73
2017-11-01T06:51:18.535Z,14.00
2017-11-01T06:51:52.471Z,15.15
2017-11-01T06:52:26.346Z,13.45
2017-11-01T06:53:00.218Z,14.00
2017-11-01T06:53:34.199Z,14.70
2017-11-01T06:54:08.078Z,13.77
2017-11-01T06:54:42.025Z,12.70
2017-11-01T06:55:16.298Z,14.27
2017-11-01T06:55:50.317Z,13.07
2017-11-01T06:56:25.142Z,13.30
2017-11-01T06:56:59.001Z,12.68
2017-11-01T06:57:32.877Z,13.68
2017-11-01T06:58:06.729Z,13.30
2017-11-01T06:58:40.580Z,13.77
2017-11-01T06:59:14.451Z,13.57
2017-11-01T06:59:48.308Z,14.13
2017-11-01T07:00:27.856Z,13.52
2017-11-01T07:01:01.729Z,14.30
2017-11-01T07:01:35.581Z,14.05
2017-11-01T07:02:09.453Z,14.05
2017-11-01T07:02:43.441Z,13.62
2017-11-01T07:03:18.115Z,14.02
2017-11-01T07:03:52.049Z,14.85
2017-11-01T07:04:27.961Z,12.68
2017-11-01T07:05:01.858Z,12.60
2017-11-01T07:05:35.726Z,13.40
2017-11-01T07:06:09.600Z,13.50
2017-11-01T07:06:43.485Z,13.27
2017-11-01T07:07:17.441Z,12.70
2017-11-01T07:07:51.729Z,14.23
2017-11-01T07:08:27.538Z,14.30
2017-11-01T07:09:01.643Z,13.35
2017-11-01T07:09:51.176Z,12.75
2017-11-01T07:10:25.077Z,13.75
2017-11-01T07:10:58.946Z,13.70
2017-11-01T07:11:32.821Z,13.40
2017-11-01T07:12:06.686Z,12.75
2017-11-01T07:12:40.724Z,13.02
2017-11-01T07:13:14.595Z,12.82
2017-11-01T07:13:48.453Z,14.27
2017-11-01T07:14:22.411Z,14.20
2017-11-01T07:14:56.623Z,13.85
2017-11-01T07:15:30.501Z,14.75
2017-11-01T07:17:01.067Z,13.50
2017-11-01T07:17:35.028Z,13.38
2017-11-01T07:18:08.905Z,14.43
2017-11-01T07:18:42.831Z,13.68
2017-11-01T07:19:16.698Z,14.07
2017-11-01T07:19:50.572Z,14.27
2017-11-01T07:20:24.629Z,14.00
2017-11-01T07:20:58.534Z,14.50